createdAt,value
2022-10-18T00:02:36.424Z,7.32
2022-10-18T00:05:38.440Z,8.82
2022-10-18T00:08:40.386Z,8.25
2022-10-18T00:11:43.819Z,6.90
2022-10-18T00:14:48.914Z,6.70
2022-10-18T00:17:50.838Z,16.38
2022-10-18T00:21:00.792Z,7.65
2022-10-18T00:24:03.725Z,8.07
2022-10-18T00:27:07.266Z,6.93
2022-10-18T00:30:10.038Z,7.63
2022-10-18T00:33:11.998Z,4.75
2022-10-18T00:36:14.762Z,11.57
2022-10-18T00:39:18.390Z,5.95
2022-10-18T00:42:25.262Z,6.60
2022-10-18T00:45:27.385Z,8.30
2022-10-18T00:48:29.405Z,7.60
2022-10-18T00:51:36.332Z,10.27
2022-10-18T00:54:41.911Z,8.20
2022-10-18T00:57:46.072Z,7.85
2022-10-18T01:00:48.153Z,7.15
2022-10-18T01:03:52.249Z,7.38
2022-10-18T01:07:01.196Z,5.95
2022-10-18T01:10:12.953Z,7.32
2022-10-18T01:13:29.376Z,8.82
2022-10-18T01:16:38.027Z,7.03
2022-10-18T01:20:11.825Z,8.40
2022-10-18T01:23:19.218Z,5.72
2022-10-18T01:26:37.074Z,13.63
2022-10-18T01:29:51.375Z,10.70
2022-10-18T01:32:59.676Z,7.97
2022-10-18T01:36:07.605Z,7.77
2022-10-18T01:39:14.405Z,12.20
2022-10-18T01:42:20.294Z,12.18
2022-10-18T01:45:24.226Z,8.45
2022-10-18T01:48:27.888Z,8.68
2022-10-18T01:51:31.950Z,8.73
2022-10-18T01:54:37.474Z,13.63
2022-10-18T01:57:43.896Z,10.90
2022-10-18T02:00:50.773Z,12.15
2022-10-18T02:04:00.539Z,8.18
2022-10-18T02:07:08.996Z,11.85
2022-10-18T02:10:18.174Z,8.43
2022-10-18T02:13:23.736Z,13.60
2022-10-18T02:16:30.234Z,11.85
2022-10-18T02:19:38.318Z,6.43
2022-10-18T02:22:42.324Z,7.40
2022-10-18T02:25:44.342Z,10.07
2022-10-18T02:28:46.457Z,8.52
2022-10-18T02:31:52.929Z,8.55
2022-10-18T02:35:00.729Z,9.80
2022-10-18T02:38:04.441Z,9.85
2022-10-18T02:41:06.496Z,6.68
2022-10-18T02:44:08.493Z,11.05
2022-10-18T02:47:11.634Z,10.68
2022-10-18T02:50:15.471Z,5.07
2022-10-18T02:53:17.409Z,11.07
2022-10-18T02:56:19.727Z,6.78
2022-10-18T02:59:21.898Z,6.57
2022-10-18T03:02:23.929Z,8.65
2022-10-18T03:05:27.467Z,6.68
2022-10-18T03:08:29.621Z,7.95
2022-10-18T03:11:32.228Z,7.60
2022-10-18T03:14:34.126Z,7.18
2022-10-18T03:17:36.000Z,7.32
2022-10-18T03:20:39.711Z,8.13
2022-10-18T03:23:41.694Z,10.07
2022-10-18T03:26:43.566Z,7.35
2022-10-18T03:29:45.461Z,6.85
2022-10-18T03:32:47.488Z,7.88
2022-10-18T03:35:50.790Z,10.50
2022-10-18T03:38:52.817Z,5.78
2022-10-18T03:41:54.760Z,5.07
2022-10-18T03:44:56.708Z,10.18
2022-10-18T03:47:58.935Z,7.63
2022-10-18T03:51:02.288Z,7.40
2022-10-18T03:54:04.330Z,10.30
2022-10-18T03:57:06.212Z,8.68
2022-10-18T04:00:09.227Z,5.05
2022-10-18T04:03:11.205Z,6.57
2022-10-18T04:06:14.546Z,5.93
2022-10-18T04:09:16.867Z,8.63
2022-10-18T04:12:18.759Z,9.75
2022-10-18T04:15:21.223Z,12.45
2022-10-18T04:18:23.259Z,7.68
2022-10-18T04:21:26.573Z,7.32
2022-10-18T04:24:28.541Z,13.57
2022-10-18T04:27:30.942Z,12.98
2022-10-18T04:30:33.158Z,8.70
2022-10-18T04:33:35.348Z,6.40
2022-10-18T04:36:38.597Z,7.07
2022-10-18T04:39:40.558Z,7.10
2022-10-18T04:42:42.468Z,11.55
2022-10-18T04:45:45.133Z,6.55
2022-10-18T04:48:47.020Z,7.13
2022-10-18T04:51:50.756Z,9.30
2022-10-18T04:54:52.711Z,11.43
2022-10-18T04:57:55.196Z,8.38
2022-10-18T05:00:57.200Z,10.80
2022-10-18T05:03:59.159Z,9.82
2022-10-18T05:07:02.471Z,10.85
2022-10-18T05:10:05.680Z,7.18
2022-10-18T05:13:07.652Z,9.40
2022-10-18T05:16:10.160Z,7.95
2022-10-18T05:19:12.041Z,15.20
2022-10-18T05:22:15.350Z,12.15
2022-10-18T05:25:17.368Z,9.52
2022-10-18T05:28:39.760Z,10.27
2022-10-18T05:31:41.239Z,13.55
2022-10-18T05:34:43.148Z,11.63
2022-10-18T05:37:46.820Z,13.98
2022-10-18T05:40:48.912Z,16.35
2022-10-18T05:43:50.807Z,11.77
2022-10-18T05:46:52.903Z,8.85
2022-10-18T05:49:54.930Z,7.20
2022-10-18T05:53:06.905Z,14.90
2022-10-18T05:56:20.390Z,8.73
2022-10-18T05:59:22.427Z,10.48
2022-10-18T06:02:24.527Z,12.55
2022-10-18T06:05:26.535Z,8.82
2022-10-18T06:08:30.094Z,11.43
2022-10-18T06:11:32.661Z,13.48
2022-10-18T06:14:34.708Z,11.32
2022-10-18T06:17:36.979Z,11.07
2022-10-18T06:20:39.114Z,14.13
2022-10-18T06:23:43.314Z,9.90
2022-10-18T06:26:45.235Z,21.63
2022-10-18T06:29:47.202Z,8.82
2022-10-18T06:32:49.190Z,12.90
2022-10-18T06:35:55.522Z,11.55
2022-10-18T06:38:59.174Z,11.82
2022-10-18T06:42:01.157Z,12.00
2022-10-18T06:45:03.118Z,11.07
2022-10-18T06:48:05.650Z,14.85
2022-10-18T06:51:08.467Z,12.25
2022-10-18T06:54:19.294Z,16.70
2022-10-18T06:57:21.337Z,12.10
2022-10-18T07:00:23.720Z,10.57
2022-10-18T07:03:25.987Z,13.82
2022-10-18T07:06:27.993Z,11.18
2022-10-18T07:09:31.362Z,12.05
2022-10-18T07:12:34.178Z,8.65
2022-10-18T07:15:36.196Z,10.18
2022-10-18T07:18:40.115Z,10.13
2022-10-18T07:21:42.086Z,9.05
2022-10-18T07:24:45.409Z,10.18
2022-10-18T07:27:47.619Z,8.40
2022-10-18T07:30:49.645Z,15.20
2022-10-18T07:33:51.995Z,11.88
2022-10-18T07:36:53.917Z,9.85
2022-10-18T07:39:57.334Z,13.32
2022-10-18T07:43:04.069Z,11.50
2022-10-18T07:46:06.906Z,11.38
2022-10-18T07:49:08.919Z,11.68
2022-10-18T07:52:10.979Z,8.43
2022-10-18T07:55:14.531Z,9.73
2022-10-18T07:58:16.430Z,8.63
2022-10-18T08:01:19.601Z,7.78
2022-10-18T08:04:21.691Z,11.82
2022-10-18T08:07:23.746Z,11.23
2022-10-18T08:10:27.088Z,10.75
2022-10-18T08:13:29.733Z,13.07
2022-10-18T08:19:34.956Z,8.73
2022-10-18T08:22:36.911Z,8.15
2022-10-18T08:25:40.339Z,10.63
2022-10-18T08:28:49.116Z,13.43
2022-10-18T08:31:56.146Z,16.23
2022-10-18T08:34:58.114Z,11.93
2022-10-18T08:38:00.391Z,12.52
2022-10-18T08:41:19.571Z,9.43
2022-10-18T08:44:24.546Z,8.68
2022-10-18T08:47:34.459Z,10.93
2022-10-18T08:50:37.288Z,10.63
2022-10-18T08:53:48.196Z,11.77
2022-10-18T08:56:59.094Z,9.70
2022-10-18T09:00:02.678Z,11.02
2022-10-18T09:03:17.754Z,9.02
2022-10-18T09:06:26.635Z,10.35
2022-10-18T09:09:38.834Z,8.75
2022-10-18T09:12:55.822Z,9.15
2022-10-18T09:16:00.728Z,8.55
2022-10-18T09:19:11.244Z,8.98
2022-10-18T09:22:14.644Z,14.40
2022-10-18T09:25:19.490Z,14.48
2022-10-18T09:28:36.737Z,10.75
2022-10-18T09:31:47.619Z,11.35
2022-10-18T09:34:53.493Z,14.77
2022-10-18T09:38:02.413Z,10.00
2022-10-18T09:41:10.739Z,10.25
2022-10-18T09:44:19.392Z,8.25
2022-10-18T09:47:25.366Z,8.15
2022-10-18T09:50:32.610Z,8.73
2022-10-18T09:53:41.979Z,9.38
2022-10-18T09:56:48.745Z,10.93
2022-10-18T09:59:52.248Z,9.32
2022-10-18T10:02:54.314Z,9.32
2022-10-18T10:06:03.631Z,10.32
2022-10-18T10:12:25.782Z,8.57
2022-10-18T10:15:33.192Z,12.23
2022-10-18T10:18:40.239Z,5.82
2022-10-18T10:21:42.552Z,8.38
2022-10-18T10:24:48.685Z,7.20
2022-10-18T10:27:51.177Z,7.70
2022-10-18T10:30:54.847Z,7.50
2022-10-18T10:34:01.203Z,6.18
2022-10-18T10:37:03.464Z,10.57
2022-10-18T10:40:17.812Z,6.32
2022-10-18T10:43:40.431Z,16.60
2022-10-18T10:46:46.521Z,8.80
2022-10-18T10:49:48.583Z,8.05
2022-10-18T10:52:51.067Z,11.70
2022-10-18T10:55:54.288Z,8.90
2022-10-18T10:59:01.635Z,4.40
2022-10-18T11:02:23.030Z,7.88
2022-10-18T11:05:27.251Z,4.53
2022-10-18T11:08:33.193Z,5.38
2022-10-18T11:11:40.837Z,6.47
2022-10-18T11:14:47.343Z,4.00
2022-10-18T11:18:00.577Z,4.43
2022-10-18T11:21:06.838Z,4.43
2022-10-18T11:24:15.799Z,5.90
2022-10-18T11:27:27.863Z,6.50
2022-10-18T11:30:46.927Z,6.25
2022-10-18T11:34:10.512Z,6.65
2022-10-18T11:37:38.623Z,6.88
2022-10-18T11:41:07.365Z,5.00
2022-10-18T11:44:19.435Z,4.40
2022-10-18T11:47:27.759Z,6.80
2022-10-18T11:50:40.710Z,4.17
2022-10-18T11:54:00.907Z,3.92
2022-10-18T12:00:35.033Z,5.75
2022-10-18T12:03:52.496Z,6.32
2022-10-18T12:06:57.351Z,5.40
2022-10-18T12:10:01.667Z,4.90
2022-10-18T12:13:07.280Z,7.00
2022-10-18T12:16:10.841Z,3.60
2022-10-18T12:19:22.109Z,8.77
2022-10-18T12:22:37.938Z,6.43
2022-10-18T12:25:43.130Z,4.95
2022-10-18T12:28:56.821Z,8.43
2022-10-18T12:32:02.485Z,6.30
2022-10-18T12:35:11.775Z,6.35
2022-10-18T12:41:25.734Z,5.40
2022-10-18T12:44:31.497Z,4.78
2022-10-18T12:47:34.012Z,3.80
2022-10-18T12:50:38.653Z,3.38
2022-10-18T12:53:43.065Z,3.63
2022-10-18T12:56:46.080Z,5.43
2022-10-18T12:59:48.128Z,8.02
2022-10-18T13:03:25.237Z,6.03
2022-10-18T13:07:05.545Z,7.32
2022-10-18T13:10:41.828Z,44.58
2022-10-18T13:13:57.941Z,10.30
2022-10-18T13:17:07.095Z,9.15
2022-10-18T13:20:27.208Z,5.35
2022-10-18T13:23:39.334Z,5.30
2022-10-18T13:26:59.054Z,6.95
2022-10-18T13:30:32.951Z,10.70
2022-10-18T13:33:36.307Z,5.07
2022-10-18T13:36:38.364Z,9.40
2022-10-18T13:39:40.802Z,7.65
2022-10-18T13:42:44.145Z,7.68
2022-10-18T13:45:55.500Z,5.55
2022-10-18T13:49:00.425Z,5.47
2022-10-18T13:52:15.422Z,5.60
2022-10-18T13:55:40.699Z,9.35
2022-10-18T13:59:13.066Z,8.52
2022-10-18T14:02:50.932Z,8.10
2022-10-18T14:05:56.976Z,7.88
2022-10-18T14:09:09.587Z,6.30
2022-10-18T14:12:31.184Z,10.65
2022-10-18T14:15:37.491Z,11.90
2022-10-18T14:18:42.863Z,8.43
2022-10-18T14:21:54.035Z,11.57
2022-10-18T14:24:58.324Z,6.32
2022-10-18T14:28:08.916Z,8.43
2022-10-18T14:31:18.317Z,8.23
2022-10-18T14:34:21.742Z,7.10
2022-10-18T14:37:28.051Z,5.22
2022-10-18T14:40:36.797Z,7.28
2022-10-18T14:43:38.804Z,9.45
2022-10-18T14:46:45.952Z,7.28
2022-10-18T14:49:48.716Z,7.43
2022-10-18T14:52:51.153Z,6.95
2022-10-18T14:55:55.519Z,6.60
2022-10-18T14:59:01.318Z,11.02
2022-10-18T15:02:13.466Z,5.68
2022-10-18T15:05:20.278Z,8.00
2022-10-18T15:08:24.648Z,10.43
2022-10-18T15:11:28.249Z,10.00
2022-10-18T15:14:30.999Z,4.72
2022-10-18T15:17:35.354Z,4.85
2022-10-18T15:20:38.241Z,5.78
2022-10-18T15:23:40.304Z,9.68
2022-10-18T15:26:45.128Z,11.38
2022-10-18T15:29:47.276Z,10.73
2022-10-18T15:32:56.694Z,7.85
2022-10-18T15:36:08.721Z,8.38
2022-10-18T15:39:17.540Z,11.13
2022-10-18T15:42:36.934Z,14.82
2022-10-18T15:49:18.730Z,10.80
2022-10-18T15:52:38.509Z,10.80
2022-10-18T15:55:49.723Z,18.85
2022-10-18T15:58:52.231Z,13.65
2022-10-18T16:01:54.760Z,15.90
2022-10-18T16:05:01.169Z,22.42
2022-10-18T16:08:03.815Z,13.73
2022-10-18T16:11:06.454Z,20.67
2022-10-18T16:14:08.729Z,7.97
2022-10-18T16:17:12.681Z,9.88
2022-10-18T16:20:20.200Z,11.60
2022-10-18T16:23:24.616Z,11.65
2022-10-18T16:26:27.574Z,15.38
2022-10-18T16:29:29.748Z,9.35
2022-10-18T16:32:31.888Z,17.00
2022-10-18T16:35:35.551Z,10.20
2022-10-18T16:38:37.676Z,9.95
2022-10-18T16:41:39.663Z,11.68
2022-10-18T16:44:41.611Z,12.63
2022-10-18T16:47:43.610Z,9.30
2022-10-18T16:50:47.834Z,15.05
2022-10-18T16:53:50.585Z,11.20
2022-10-18T16:56:52.511Z,15.10
2022-10-18T16:59:54.626Z,14.98
2022-10-18T17:02:56.966Z,10.40
2022-10-18T17:06:02.055Z,10.70
2022-10-18T17:09:05.532Z,15.38
2022-10-18T17:12:07.704Z,15.13
2022-10-18T17:15:13.140Z,11.52
2022-10-18T17:18:17.176Z,9.77
2022-10-18T17:21:22.648Z,11.93
2022-10-18T17:24:25.946Z,14.80
2022-10-18T17:27:28.542Z,96.93
2022-10-18T17:30:32.330Z,109.20
2022-10-18T17:33:37.178Z,81.18
2022-10-18T17:36:41.283Z,20.80
2022-10-18T17:39:46.825Z,12.05
2022-10-18T17:42:54.066Z,17.30
2022-10-18T17:45:59.252Z,19.77
2022-10-18T17:49:03.092Z,12.70
2022-10-18T17:52:07.736Z,23.25
2022-10-18T17:55:10.315Z,14.85
2022-10-18T17:58:14.009Z,26.67
2022-10-18T18:01:19.101Z,26.85
2022-10-18T18:04:21.918Z,23.73
2022-10-18T18:07:27.570Z,11.43
2022-10-18T18:10:30.577Z,24.13
2022-10-18T18:13:37.951Z,20.17
2022-10-18T18:16:42.940Z,31.98
2022-10-18T18:22:55.171Z,15.65
2022-10-18T18:25:58.500Z,12.85
2022-10-18T18:32:06.190Z,11.00
2022-10-18T18:35:09.024Z,18.73
2022-10-18T18:38:13.062Z,19.52
2022-10-18T18:41:22.374Z,17.15
2022-10-18T18:47:28.692Z,12.00
2022-10-18T18:50:31.281Z,18.45
2022-10-18T18:53:35.820Z,14.15
2022-10-18T18:56:39.461Z,16.33
2022-10-18T18:59:42.571Z,13.50
2022-10-18T19:02:47.902Z,12.00
2022-10-18T19:05:50.454Z,17.92
2022-10-18T19:08:55.772Z,22.67
2022-10-18T19:11:58.627Z,22.73
2022-10-18T19:15:01.877Z,34.92
2022-10-18T19:18:04.572Z,66.78
2022-10-18T19:21:09.620Z,36.95
2022-10-18T19:24:16.627Z,28.33
2022-10-18T19:27:19.721Z,32.22
2022-10-18T19:30:22.831Z,50.15
2022-10-18T19:33:41.350Z,48.50
2022-10-18T19:36:49.848Z,39.42
2022-10-18T19:39:54.072Z,23.00
2022-10-18T19:42:56.992Z,34.50
2022-10-18T19:46:02.913Z,35.40
2022-10-18T19:49:05.491Z,16.10
2022-10-18T19:52:08.726Z,20.95
2022-10-18T19:55:13.514Z,19.98
2022-10-18T19:58:18.405Z,18.23
2022-10-18T20:01:21.583Z,14.43
2022-10-18T20:04:24.155Z,16.02
2022-10-18T20:07:26.944Z,26.05
2022-10-18T20:10:30.671Z,20.83
2022-10-18T20:13:35.988Z,15.85
2022-10-18T20:16:38.291Z,38.85
2022-10-18T20:19:40.907Z,33.22
2022-10-18T20:22:43.255Z,41.38
2022-10-18T20:25:57.096Z,20.30
2022-10-18T20:28:59.113Z,16.63
2022-10-18T20:32:01.216Z,13.23
2022-10-18T20:35:03.235Z,13.85
2022-10-18T20:38:05.156Z,11.30
2022-10-18T20:41:11.550Z,14.85
2022-10-18T20:44:15.156Z,13.43
2022-10-18T20:47:17.138Z,14.55
2022-10-18T20:50:19.001Z,12.75
2022-10-18T20:53:21.327Z,15.52
2022-10-18T20:56:26.219Z,15.57
2022-10-18T20:59:28.244Z,29.13
2022-10-18T21:02:30.170Z,14.48
2022-10-18T21:05:33.142Z,22.75
2022-10-18T21:08:35.034Z,18.60
2022-10-18T21:11:40.122Z,18.48
2022-10-18T21:14:42.073Z,17.33
2022-10-18T21:17:44.034Z,21.67
2022-10-18T21:20:45.972Z,18.48
2022-10-18T21:23:47.902Z,17.65
2022-10-18T21:26:51.230Z,17.77
2022-10-18T21:29:53.117Z,13.82
2022-10-18T21:32:55.282Z,15.05
2022-10-18T21:36:01.334Z,14.95
2022-10-18T21:39:04.466Z,13.85
2022-10-18T21:42:07.947Z,17.08
2022-10-18T21:45:10.406Z,15.00
2022-10-18T21:48:12.441Z,13.93
2022-10-18T21:51:16.481Z,13.70
2022-10-18T21:54:19.018Z,14.90
2022-10-18T21:57:22.453Z,16.63
2022-10-18T22:00:24.409Z,16.35
2022-10-18T22:03:26.475Z,13.93
2022-10-18T22:06:29.621Z,14.95
2022-10-18T22:09:31.784Z,11.82
2022-10-18T22:12:35.084Z,12.27
2022-10-18T22:18:45.241Z,15.27
2022-10-18T22:21:47.594Z,16.13
2022-10-18T22:24:49.523Z,10.77
2022-10-18T22:27:52.800Z,14.43
2022-10-18T22:30:54.705Z,11.15
2022-10-18T22:33:58.798Z,11.90
2022-10-18T22:37:00.699Z,12.43
2022-10-18T22:40:03.357Z,13.32
2022-10-18T22:43:06.728Z,8.93
2022-10-18T22:46:10.454Z,11.93
2022-10-18T22:49:12.619Z,10.50
2022-10-18T22:52:14.546Z,12.65
2022-10-18T22:55:16.479Z,12.65
2022-10-18T22:58:20.159Z,9.48
2022-10-18T23:01:23.599Z,10.68
2022-10-18T23:04:25.731Z,12.95
2022-10-18T23:07:27.889Z,12.27
2022-10-18T23:10:29.839Z,10.68
2022-10-18T23:13:36.119Z,14.70
2022-10-18T23:16:40.649Z,11.27
2022-10-18T23:19:43.147Z,16.45
2022-10-18T23:22:45.223Z,11.85
2022-10-18T23:25:50.989Z,11.38
2022-10-18T23:28:55.381Z,20.30
2022-10-18T23:31:57.579Z,10.52
2022-10-18T23:34:59.508Z,15.20
2022-10-18T23:38:01.545Z,12.30
2022-10-18T23:41:03.953Z,12.23
2022-10-18T23:44:07.266Z,12.13
2022-10-18T23:47:09.261Z,10.50
2022-10-18T23:50:11.512Z,13.68
2022-10-18T23:53:13.608Z,15.65
2022-10-18T23:56:16.709Z,15.10
2022-10-18T23:59:20.065Z,10.27
